Viby, Denmark
Current Conditions -  °F | °C
As of 7:20 PM on Friday 28 Nov 2014 (Local Time) from EKRK Reporting Station
Overcast Overcast  
Wind Chill: 29°   Ceiling: 2900
Heat Index: 39°   Visibility: 6mi
Dew Point: 28°   Wind: 21mph
Humidity: 65%   Direction: 110°ESE
Pressure: 30.24"   Gusts: NA
Location:  55.55°N, 12.02°E
Report Text: EKRK 281820Z AUTO 11018KT 9999NDV BKN029/// OVC034///04/M02 Q1024
Loading
Personal Weather Stations






























Interactive Weather Map New forecast layout! Learn more

10-Day Weather Forecast

Advertisements
Track Severe Weather on mobile